Time;durP1;ratioP1;P1;durP2;ratioP2;P2;SDS_P1;SDS_P2;PMS_P1;PMS_P2;Temp;Humidity;BMP_temperature;BMP_pressure;BME280_temperature;BME280_humidity;BME280_pressure;Samples;Min_cycle;Max_cycle;Signal;HPM_P1;HPM_P2
2022/01/08 00:00:45;;;;;;;;;;;8.90;99.90;;;;;;5076913;28;20387;-80
2022/01/08 00:03:11;;;;;;;;;;;8.80;99.90;;;;;;5076667;28;19923;-78
2022/01/08 00:05:36;;;;;;;;;;;8.80;99.90;;;;;;5076680;28;19915;-79
2022/01/08 00:08:02;;;;;;;;;;;8.80;99.90;;;;;;5076575;28;20365;-77
2022/01/08 00:10:27;;;;;;;;;;;8.80;99.90;;;;;;5076807;28;20003;-77
2022/01/08 00:12:53;;;;;;;;;;;8.80;99.90;;;;;;5076588;28;20280;-77
2022/01/08 00:15:21;;;;;;;;;;;8.70;99.90;;;;;;5091996;28;19920;-80
2022/01/08 00:17:46;;;;;;;;;;;8.70;99.90;;;;;;5075248;28;19909;-80
2022/01/08 00:20:13;;;;;;;;;;;8.70;99.90;;;;;;5076532;28;19915;-80
2022/01/08 00:22:38;;;;;;;;;;;8.70;99.90;;;;;;5091904;28;19964;-81
2022/01/08 00:25:04;;;;;;;;;;;8.70;99.90;;;;;;5076341;28;19939;-78
2022/01/08 00:27:30;;;;;;;;;;;8.70;99.90;;;;;;5076492;28;20003;-80
2022/01/08 00:29:56;;;;;;;;;;;8.60;99.90;;;;;;5076551;28;19908;-80
2022/01/08 00:32:21;;;;;;;;;;;8.70;99.90;;;;;;5091785;28;19954;-80
2022/01/08 00:34:47;;;;;;;;;;;8.70;99.90;;;;;;5076211;28;19931;-80
2022/01/08 00:37:13;;;;;;;;;;;8.80;99.90;;;;;;5076173;28;20261;-79
2022/01/08 00:39:39;;;;;;;;;;;8.70;99.90;;;;;;5074811;28;20364;-80
2022/01/08 00:42:05;;;;;;;;;;;8.70;99.90;;;;;;5091407;28;20321;-81
2022/01/08 00:44:30;;;;;;;;;;;8.70;99.90;;;;;;5074761;28;19966;-81
2022/01/08 00:46:56;;;;;;;;;;;8.60;99.90;;;;;;5076006;28;19915;-79
2022/01/08 00:49:24;;;;;;;;;;;8.60;99.90;;;;;;5075989;28;19913;-81
2022/01/08 00:51:49;;;;;;;;;;;8.60;99.90;;;;;;5076048;28;19991;-79
2022/01/08 00:54:15;;;;;;;;;;;8.70;99.90;;;;;;5075928;28;20007;-79
2022/01/08 00:56:40;;;;;;;;;;;8.70;99.90;;;;;;5075717;28;20284;-79
2022/01/08 00:59:06;;;;;;;;;;;8.70;99.90;;;;;;5075733;28;19915;-81
2022/01/08 01:01:31;;;;;;;;;;;8.70;99.90;;;;;;5075581;28;19974;-80
2022/01/08 01:03:57;;;;;;;;;;;8.70;99.90;;;;;;5075647;28;19912;-79
2022/01/08 01:06:23;;;;;;;;;;;8.70;99.90;;;;;;5076030;28;19915;-80
2022/01/08 01:08:49;;;;;;;;;;;8.70;99.90;;;;;;5075572;28;19909;-80
2022/01/08 01:11:14;;;;;;;;;;;8.70;99.90;;;;;;5091135;28;19908;-79
2022/01/08 01:13:40;;;;;;;;;;;8.60;99.90;;;;;;5075287;28;19931;-78
2022/01/08 01:16:06;;;;;;;;;;;8.60;99.90;;;;;;5075507;28;20369;-78
2022/01/08 01:18:32;;;;;;;;;;;8.70;99.90;;;;;;5075593;28;19915;-80
2022/01/08 01:20:58;;;;;;;;;;;8.60;99.90;;;;;;5075402;28;20001;-79
2022/01/08 01:23:35;;;;;;;;;;;8.60;99.90;;;;;;5075286;28;20381;-77
2022/01/08 01:26:04;;;;;;;;;;;8.60;99.90;;;;;;5075447;28;20444;-77
2022/01/08 01:42:39;;;;;;;;;;;8.70;99.90;;;;;;5075093;28;19915;-77
2022/01/08 01:47:18;;;;;;;;;;;8.70;99.90;;;;;;5075054;28;20039;-78
2022/01/08 01:49:47;;;;;;;;;;;8.70;99.90;;;;;;5074755;28;19944;-77
2022/01/08 01:52:14;;;;;;;;;;;8.70;99.90;;;;;;5074737;28;19946;-81
2022/01/08 01:54:40;;;;;;;;;;;8.70;99.90;;;;;;5073393;28;19909;-79
2022/01/08 01:57:06;;;;;;;;;;;8.70;99.90;;;;;;5074540;28;19916;-77
2022/01/08 01:59:33;;;;;;;;;;;8.70;99.90;;;;;;5074740;28;20361;-78
2022/01/08 02:01:59;;;;;;;;;;;8.60;99.90;;;;;;5074585;28;19915;-82
2022/01/08 02:04:25;;;;;;;;;;;8.60;99.90;;;;;;5074394;28;19912;-81
2022/01/08 02:06:51;;;;;;;;;;;8.60;99.90;;;;;;5074507;28;19947;-80
2022/01/08 02:09:16;;;;;;;;;;;8.50;99.90;;;;;;5072930;28;20031;-78
2022/01/08 02:11:57;;;;;;;;;;;8.60;99.90;;;;;;5074359;28;20353;-78
2022/01/08 02:14:23;;;;;;;;;;;8.60;99.90;;;;;;5072726;28;20015;-79
2022/01/08 02:16:49;;;;;;;;;;;8.60;99.90;;;;;;5074397;28;19912;-82
2022/01/08 02:19:14;;;;;;;;;;;8.60;99.90;;;;;;5074260;28;19958;-81
2022/01/08 02:21:50;;;;;;;;;;;8.60;99.90;;;;;;5073637;28;19912;-79
2022/01/08 02:24:16;;;;;;;;;;;8.60;99.90;;;;;;5074027;28;20018;-81
2022/01/08 02:26:41;;;;;;;;;;;8.60;99.90;;;;;;5074067;28;19952;-79
2022/01/08 02:29:14;;;;;;;;;;;8.50;99.90;;;;;;5074088;28;20284;-78
2022/01/08 02:31:40;;;;;;;;;;;8.60;99.90;;;;;;5073889;28;19999;-80
2022/01/08 02:34:07;;;;;;;;;;;8.60;99.90;;;;;;5073888;28;19934;-78
2022/01/08 02:36:33;;;;;;;;;;;8.50;99.90;;;;;;5073843;28;20368;-80
2022/01/08 02:38:59;;;;;;;;;;;8.50;99.90;;;;;;5073973;28;19912;-78
2022/01/08 02:41:26;;;;;;;;;;;8.50;99.90;;;;;;5073763;28;19954;-79
2022/01/08 02:43:53;;;;;;;;;;;8.50;99.90;;;;;;5073788;28;19948;-78
2022/01/08 02:46:21;;;;;;;;;;;8.50;99.90;;;;;;5073716;28;20436;-81
2022/01/08 02:48:47;;;;;;;;;;;8.50;99.90;;;;;;5073650;28;19909;-79
2022/01/08 02:51:13;;;;;;;;;;;8.50;99.90;;;;;;5073806;28;19946;-79
2022/01/08 02:53:39;;;;;;;;;;;8.50;99.90;;;;;;5074006;28;19915;-78
2022/01/08 02:56:04;;;;;;;;;;;8.40;99.90;;;;;;5073707;28;19908;-78
2022/01/08 02:58:30;;;;;;;;;;;8.50;99.90;;;;;;5073723;28;19909;-81
2022/01/08 03:00:56;;;;;;;;;;;8.50;99.90;;;;;;5073763;28;20011;-79
2022/01/08 03:03:22;;;;;;;;;;;8.50;99.90;;;;;;5073320;28;20011;-79
2022/01/08 03:05:47;;;;;;;;;;;8.40;99.90;;;;;;5073411;28;19908;-80
2022/01/08 03:08:13;;;;;;;;;;;8.40;99.90;;;;;;5073616;28;20379;-79
2022/01/08 03:10:39;;;;;;;;;;;8.30;99.90;;;;;;5073347;28;19911;-78
2022/01/08 03:13:05;;;;;;;;;;;8.30;99.90;;;;;;5088724;28;20323;-78
2022/01/08 03:15:33;;;;;;;;;;;8.10;99.90;;;;;;5073520;28;19912;-81
2022/01/08 03:17:58;;;;;;;;;;;8.10;99.90;;;;;;5073908;28;19908;-78
2022/01/08 03:20:24;;;;;;;;;;;8.10;99.90;;;;;;5073342;28;19957;-77
2022/01/08 03:22:51;;;;;;;;;;;8.10;99.90;;;;;;5073310;28;19963;-80
2022/01/08 03:25:17;;;;;;;;;;;8.10;99.90;;;;;;5073406;28;19908;-80
2022/01/08 03:27:42;;;;;;;;;;;8.10;99.90;;;;;;5073319;28;19909;-80
2022/01/08 03:30:09;;;;;;;;;;;8.10;99.90;;;;;;5073288;28;19970;-77
2022/01/08 03:32:35;;;;;;;;;;;8.00;99.90;;;;;;5076463;28;20487;-82
2022/01/08 03:35:00;;;;;;;;;;;8.00;99.90;;;;;;5077395;28;19948;-80
2022/01/08 03:37:26;;;;;;;;;;;7.90;99.90;;;;;;5077359;28;19910;-78
2022/01/08 03:39:51;;;;;;;;;;;8.00;99.90;;;;;;5092630;28;19912;-81
2022/01/08 03:42:17;;;;;;;;;;;8.00;99.90;;;;;;5077060;28;19916;-81
2022/01/08 03:44:43;;;;;;;;;;;7.90;99.90;;;;;;5077122;28;19909;-82
2022/01/08 03:49:52;;;;;;;;;;;7.90;99.90;;;;;;5076745;28;19915;-77
2022/01/08 03:52:19;;;;;;;;;;;7.90;99.90;;;;;;5077429;28;20011;-81
2022/01/08 03:54:45;;;;;;;;;;;7.80;99.90;;;;;;5076907;28;20381;-79
2022/01/08 03:57:10;;;;;;;;;;;7.80;99.90;;;;;;5076890;28;19919;-79
2022/01/08 03:59:36;;;;;;;;;;;7.90;99.90;;;;;;5076927;28;20323;-77
2022/01/08 04:02:02;;;;;;;;;;;7.90;99.90;;;;;;5075380;28;20436;-81
2022/01/08 04:04:27;;;;;;;;;;;7.80;99.90;;;;;;5076790;28;19912;-80
2022/01/08 04:06:53;;;;;;;;;;;7.80;99.90;;;;;;5076872;28;20281;-80
2022/01/08 04:09:19;;;;;;;;;;;7.80;99.90;;;;;;5076948;28;20038;-78
2022/01/08 04:11:44;;;;;;;;;;;7.80;99.90;;;;;;5075312;28;20277;-79
2022/01/08 04:14:10;;;;;;;;;;;7.90;99.90;;;;;;5076377;28;19921;-79
2022/01/08 04:16:39;;;;;;;;;;;7.90;99.90;;;;;;5075249;28;19915;-79
2022/01/08 04:19:05;;;;;;;;;;;8.00;99.90;;;;;;5076516;28;19981;-79
2022/01/08 04:24:03;;;;;;;;;;;7.90;99.90;;;;;;5076349;28;20346;-78
2022/01/08 04:26:28;;;;;;;;;;;8.00;99.90;;;;;;5076378;28;19908;-79
2022/01/08 04:28:55;;;;;;;;;;;8.10;99.90;;;;;;5091901;28;19985;-78
2022/01/08 04:31:20;;;;;;;;;;;8.00;99.90;;;;;;5076304;28;19914;-79
2022/01/08 04:33:46;;;;;;;;;;;8.00;99.90;;;;;;5076125;28;19908;-77
2022/01/08 04:36:12;;;;;;;;;;;8.00;99.90;;;;;;5076334;28;19908;-78
2022/01/08 04:38:37;;;;;;;;;;;8.00;99.90;;;;;;5076325;28;20049;-82
2022/01/08 04:41:03;;;;;;;;;;;8.00;99.90;;;;;;5075946;28;19915;-81
2022/01/08 04:43:29;;;;;;;;;;;8.10;99.90;;;;;;5075278;28;19920;-82
2022/01/08 04:45:55;;;;;;;;;;;8.00;99.90;;;;;;5075976;28;19908;-81
2022/01/08 04:48:21;;;;;;;;;;;8.00;99.90;;;;;;5074638;28;20493;-79
2022/01/08 04:50:46;;;;;;;;;;;8.10;99.90;;;;;;5076111;28;19909;-78
2022/01/08 04:53:12;;;;;;;;;;;8.10;99.90;;;;;;5075923;28;19908;-80
2022/01/08 04:55:38;;;;;;;;;;;8.20;99.90;;;;;;5075841;28;19908;-78
2022/01/08 04:58:05;;;;;;;;;;;8.20;99.90;;;;;;5075962;28;19909;-76
2022/01/08 05:00:31;;;;;;;;;;;8.20;99.90;;;;;;5075894;28;19909;-78
2022/01/08 05:02:57;;;;;;;;;;;8.30;99.90;;;;;;5075575;28;19913;-79
2022/01/08 05:05:23;;;;;;;;;;;8.40;99.90;;;;;;5075755;28;20339;-77
2022/01/08 05:07:48;;;;;;;;;;;8.30;99.90;;;;;;5075572;28;19908;-80
2022/01/08 05:10:14;;;;;;;;;;;8.30;99.90;;;;;;5075548;28;19916;-81
2022/01/08 05:12:40;;;;;;;;;;;8.30;99.90;;;;;;5075427;28;19980;-77
2022/01/08 05:15:06;;;;;;;;;;;8.40;99.90;;;;;;5075120;28;19974;-83
2022/01/08 05:17:35;;;;;;;;;;;8.40;99.90;;;;;;5074086;28;19912;-80
2022/01/08 05:20:11;;;;;;;;;;;8.40;99.90;;;;;;5075627;28;20011;-81
2022/01/08 05:25:12;;;;;;;;;;;8.40;99.90;;;;;;5075054;28;19908;-80
2022/01/08 05:27:38;;;;;;;;;;;8.50;99.90;;;;;;5074024;28;19908;-78
2022/01/08 05:30:04;;;;;;;;;;;8.50;99.90;;;;;;5075189;28;19932;-76
2022/01/08 05:32:30;;;;;;;;;;;8.60;99.90;;;;;;5075404;28;19967;-79
2022/01/08 05:34:56;;;;;;;;;;;8.60;99.90;;;;;;5075275;28;19909;-78
2022/01/08 05:37:21;;;;;;;;;;;8.50;99.90;;;;;;5075118;28;19913;-78
2022/01/08 05:39:47;;;;;;;;;;;8.60;99.90;;;;;;5074977;28;19915;-78
2022/01/08 05:42:13;;;;;;;;;;;8.60;99.90;;;;;;5075028;28;19991;-77
2022/01/08 05:44:38;;;;;;;;;;;8.60;99.90;;;;;;5090524;28;20384;-78
2022/01/08 05:47:04;;;;;;;;;;;8.60;99.90;;;;;;5074966;28;20369;-79
2022/01/08 05:49:30;;;;;;;;;;;8.60;99.90;;;;;;5074818;28;19908;-81
2022/01/08 05:51:55;;;;;;;;;;;8.60;99.90;;;;;;5074883;28;19951;-79
2022/01/08 05:54:21;;;;;;;;;;;8.60;99.90;;;;;;5073178;28;19940;-79
2022/01/08 05:56:46;;;;;;;;;;;8.60;99.90;;;;;;5074071;28;19912;-79
2022/01/08 05:59:12;;;;;;;;;;;8.60;99.90;;;;;;5075015;28;19915;-78
2022/01/08 06:01:37;;;;;;;;;;;8.70;99.90;;;;;;5074459;28;19908;-79
2022/01/08 06:04:03;;;;;;;;;;;8.60;99.90;;;;;;5072981;28;19962;-79
2022/01/08 06:06:29;;;;;;;;;;;8.60;99.90;;;;;;5074528;28;19909;-77
2022/01/08 06:08:55;;;;;;;;;;;8.60;99.90;;;;;;5074430;28;19973;-78
2022/01/08 06:11:21;;;;;;;;;;;8.60;99.90;;;;;;5074320;28;20287;-77
2022/01/08 06:13:46;;;;;;;;;;;8.60;99.90;;;;;;5074084;28;19934;-78
2022/01/08 06:16:12;;;;;;;;;;;8.60;99.90;;;;;;5074578;28;20366;-78
2022/01/08 06:18:38;;;;;;;;;;;8.70;99.90;;;;;;5074218;28;19912;-79
2022/01/08 06:21:04;;;;;;;;;;;8.60;99.90;;;;;;5072931;28;19995;-80
2022/01/08 06:23:30;;;;;;;;;;;8.70;99.90;;;;;;5074148;28;19958;-79
2022/01/08 06:25:55;;;;;;;;;;;8.70;99.90;;;;;;5074047;28;20328;-76
2022/01/08 06:28:21;;;;;;;;;;;8.80;99.90;;;;;;5072747;28;19920;-77
2022/01/08 06:30:49;;;;;;;;;;;8.70;99.90;;;;;;5074020;28;19956;-78
2022/01/08 06:33:16;;;;;;;;;;;8.80;99.90;;;;;;5074010;28;20373;-79
2022/01/08 06:35:41;;;;;;;;;;;8.80;99.90;;;;;;5073962;28;19916;-79
2022/01/08 06:38:07;;;;;;;;;;;8.80;99.90;;;;;;5073837;28;19961;-78
2022/01/08 06:40:33;;;;;;;;;;;8.80;99.90;;;;;;5073930;28;19916;-81
2022/01/08 06:42:58;;;;;;;;;;;8.90;99.90;;;;;;5073780;28;19920;-79
2022/01/08 06:45:24;;;;;;;;;;;8.90;99.90;;;;;;5073407;28;20382;-78
2022/01/08 06:47:50;;;;;;;;;;;9.00;99.90;;;;;;5073751;28;19908;-80
2022/01/08 06:50:15;;;;;;;;;;;9.00;99.90;;;;;;5072260;28;20262;-79
2022/01/08 06:52:41;;;;;;;;;;;9.00;99.90;;;;;;5073634;28;19966;-78
2022/01/08 06:55:07;;;;;;;;;;;9.10;99.90;;;;;;5073643;28;19934;-79
2022/01/08 06:57:33;;;;;;;;;;;9.00;99.90;;;;;;5073747;28;19909;-76
2022/01/08 07:00:00;;;;;;;;;;;9.00;99.90;;;;;;5072286;28;19952;-78
2022/01/08 07:02:26;;;;;;;;;;;9.00;99.90;;;;;;5089024;28;20377;-79
2022/01/08 07:04:51;;;;;;;;;;;9.10;99.90;;;;;;5073618;28;19919;-79
2022/01/08 07:07:17;;;;;;;;;;;9.10;99.90;;;;;;5073566;28;19913;-78
2022/01/08 07:09:43;;;;;;;;;;;9.10;99.90;;;;;;5073457;28;19908;-77
2022/01/08 07:12:08;;;;;;;;;;;9.20;99.90;;;;;;5073506;28;19909;-79
2022/01/08 07:14:34;;;;;;;;;;;9.20;99.90;;;;;;5071980;28;19995;-78
2022/01/08 07:16:59;;;;;;;;;;;9.20;99.90;;;;;;5072160;28;19915;-81
2022/01/08 07:19:25;;;;;;;;;;;9.20;99.90;;;;;;5073574;28;20281;-77
2022/01/08 07:21:51;;;;;;;;;;;9.20;99.90;;;;;;5073439;28;19958;-76
2022/01/08 07:24:16;;;;;;;;;;;9.30;99.90;;;;;;5073319;28;20262;-79
2022/01/08 07:26:42;;;;;;;;;;;9.20;99.90;;;;;;5073336;28;19908;-79
2022/01/08 07:29:07;;;;;;;;;;;9.20;99.90;;;;;;5071899;28;19963;-80
2022/01/08 07:31:33;;;;;;;;;;;9.20;99.90;;;;;;5071920;28;19909;-79
2022/01/08 07:33:58;;;;;;;;;;;9.30;99.90;;;;;;5073255;28;19909;-77
2022/01/08 07:36:24;;;;;;;;;;;9.30;99.90;;;;;;5073254;28;19955;-77
2022/01/08 07:38:50;;;;;;;;;;;9.30;99.90;;;;;;5073163;28;19908;-78
2022/01/08 07:41:15;;;;;;;;;;;9.30;99.90;;;;;;5073146;28;20404;-78
2022/01/08 07:43:41;;;;;;;;;;;9.40;99.90;;;;;;5088665;28;19946;-76
2022/01/08 07:46:07;;;;;;;;;;;9.40;99.90;;;;;;5073127;28;19909;-80
2022/01/08 07:48:32;;;;;;;;;;;9.40;99.90;;;;;;5088678;28;19915;-80
2022/01/08 07:50:58;;;;;;;;;;;9.40;99.90;;;;;;5073109;28;20003;-81
2022/01/08 07:53:24;;;;;;;;;;;9.50;99.90;;;;;;5073052;28;19909;-79
2022/01/08 07:55:49;;;;;;;;;;;9.50;99.90;;;;;;5073019;28;19908;-79
2022/01/08 07:58:20;;;;;;;;;;;9.50;99.90;;;;;;5073097;28;20269;-76
2022/01/08 08:00:49;;;;;;;;;;;9.50;99.90;;;;;;5073334;28;19909;-76
2022/01/08 08:03:14;;;;;;;;;;;9.60;99.90;;;;;;5071556;28;19912;-77
2022/01/08 08:05:40;;;;;;;;;;;9.60;99.90;;;;;;5072883;28;20363;-81
2022/01/08 08:08:06;;;;;;;;;;;9.60;99.90;;;;;;5071680;28;19909;-78
2022/01/08 08:10:32;;;;;;;;;;;9.70;99.90;;;;;;5072906;28;19913;-77
2022/01/08 08:12:58;;;;;;;;;;;9.70;99.90;;;;;;5072946;28;20280;-78
2022/01/08 08:15:24;;;;;;;;;;;9.70;99.90;;;;;;5071575;28;20360;-78
2022/01/08 08:17:50;;;;;;;;;;;9.60;99.90;;;;;;5072840;28;19950;-79
2022/01/08 08:20:15;;;;;;;;;;;9.50;99.90;;;;;;5076548;28;19912;-78
2022/01/08 08:22:41;;;;;;;;;;;9.50;99.90;;;;;;5076406;28;20292;-79
2022/01/08 08:25:07;;;;;;;;;;;9.50;99.90;;;;;;5075165;28;19908;-78
2022/01/08 08:27:33;;;;;;;;;;;9.50;99.90;;;;;;5076307;28;19908;-79
2022/01/08 08:29:58;;;;;;;;;;;9.50;99.90;;;;;;5076515;28;20292;-78
2022/01/08 08:32:24;;;;;;;;;;;9.40;99.90;;;;;;5076258;28;19909;-80
2022/01/08 08:34:52;;;;;;;;;;;9.40;99.90;;;;;;5076143;28;20346;-79
2022/01/08 08:37:18;;;;;;;;;;;9.40;99.90;;;;;;5076284;28;20012;-80
2022/01/08 08:39:44;;;;;;;;;;;9.40;99.90;;;;;;5074620;28;19942;-80
2022/01/08 08:42:11;;;;;;;;;;;9.40;99.90;;;;;;5076003;28;19909;-80
2022/01/08 08:44:36;;;;;;;;;;;9.40;99.90;;;;;;5075953;28;19961;-79
2022/01/08 08:47:03;;;;;;;;;;;9.40;99.90;;;;;;5076040;28;20364;-80
2022/01/08 08:49:29;;;;;;;;;;;9.40;99.90;;;;;;5076250;28;19951;-80
2022/01/08 08:51:54;;;;;;;;;;;9.50;99.90;;;;;;5075853;28;19908;-79
2022/01/08 08:54:20;;;;;;;;;;;9.50;99.90;;;;;;5076084;28;20391;-80
2022/01/08 08:56:46;;;;;;;;;;;9.50;99.90;;;;;;5075975;28;19908;-80
2022/01/08 08:59:14;;;;;;;;;;;9.60;99.90;;;;;;5075824;28;19966;-80
2022/01/08 09:01:40;;;;;;;;;;;9.60;99.90;;;;;;5075912;28;19959;-78
2022/01/08 09:04:06;;;;;;;;;;;9.70;99.90;;;;;;5074346;28;20387;-79
2022/01/08 09:06:32;;;;;;;;;;;9.70;99.90;;;;;;5076258;28;19999;-79
2022/01/08 09:08:57;;;;;;;;;;;9.70;99.90;;;;;;5074270;28;19908;-78
2022/01/08 09:11:23;;;;;;;;;;;9.80;99.90;;;;;;5075604;28;19999;-79
2022/01/08 09:13:49;;;;;;;;;;;9.80;99.90;;;;;;5074058;28;19928;-78
2022/01/08 09:16:15;;;;;;;;;;;9.80;99.90;;;;;;5074234;28;20384;-77
2022/01/08 09:18:41;;;;;;;;;;;9.90;99.90;;;;;;5075467;28;19969;-80
2022/01/08 09:21:07;;;;;;;;;;;10.00;99.90;;;;;;5075509;28;19924;-78
2022/01/08 09:23:33;;;;;;;;;;;10.00;99.90;;;;;;5075262;28;19920;-79
2022/01/08 09:25:58;;;;;;;;;;;9.90;99.90;;;;;;5075632;28;19908;-77
2022/01/08 09:28:26;;;;;;;;;;;10.00;99.90;;;;;;5073990;28;19908;-78
2022/01/08 09:30:51;;;;;;;;;;;10.00;99.90;;;;;;5073627;28;19919;-79
2022/01/08 09:33:17;;;;;;;;;;;10.00;99.90;;;;;;5075465;28;19908;-78
2022/01/08 09:35:43;;;;;;;;;;;10.00;99.90;;;;;;5046737;28;20312;-78
2022/01/08 09:38:09;;;;;;;;;;;10.00;99.90;;;;;;5075114;28;19908;-79
2022/01/08 09:40:34;;;;;;;;;;;10.00;99.90;;;;;;5075157;28;20049;-78
2022/01/08 09:43:00;;;;;;;;;;;9.70;99.90;;;;;;5074006;28;19913;-79
2022/01/08 09:45:27;;;;;;;;;;;9.50;99.90;;;;;;5074911;28;19978;-80
2022/01/08 09:47:53;;;;;;;;;;;9.40;99.90;;;;;;5074178;28;19913;-81
2022/01/08 09:50:18;;;;;;;;;;;9.40;99.90;;;;;;5075557;28;19908;-80
2022/01/08 09:52:44;;;;;;;;;;;9.40;99.90;;;;;;5074947;28;19915;-78
2022/01/08 09:55:10;;;;;;;;;;;9.40;99.90;;;;;;5074957;28;19947;-78
2022/01/08 09:57:35;;;;;;;;;;;9.40;99.90;;;;;;5075043;28;19908;-80
2022/01/08 10:00:08;;;;;;;;;;;9.40;99.90;;;;;;5074930;28;19920;-80
2022/01/08 10:02:33;;;;;;;;;;;9.40;99.90;;;;;;5075135;28;20246;-79
2022/01/08 10:05:07;;;;;;;;;;;9.50;99.90;;;;;;5074500;28;19908;-80
2022/01/08 10:07:32;;;;;;;;;;;9.50;99.90;;;;;;5074812;28;20345;-80
2022/01/08 10:10:13;;;;;;;;;;;9.60;99.90;;;;;;5074354;28;19908;-81
2022/01/08 10:12:41;;;;;;;;;;;9.60;99.90;;;;;;5074552;28;19958;-80
2022/01/08 10:18:20;;;;;;;;;;;9.60;99.90;;;;;;5052238;28;19920;-80
2022/01/08 10:20:49;;;;;;;;;;;9.60;99.90;;;;;;5052632;28;19955;-79
2022/01/08 10:23:16;;;;;;;;;;;9.70;99.90;;;;;;5064155;28;19982;-78
2022/01/08 10:25:53;;;;;;;;;;;9.70;99.90;;;;;;5074375;28;19908;-79
2022/01/08 10:28:30;;;;;;;;;;;9.70;99.90;;;;;;5074506;28;20426;-79
2022/01/08 10:31:05;;;;;;;;;;;9.70;99.90;;;;;;5074619;28;19916;-80
2022/01/08 10:33:31;;;;;;;;;;;9.70;99.90;;;;;;5072919;28;20074;-79
2022/01/08 10:35:57;;;;;;;;;;;9.70;99.90;;;;;;5054992;28;19954;-79
2022/01/08 10:38:26;;;;;;;;;;;9.80;99.90;;;;;;5072942;28;19908;-79
2022/01/08 10:40:51;;;;;;;;;;;9.90;99.90;;;;;;5073314;28;19920;-79
2022/01/08 10:43:21;;;;;;;;;;;9.90;99.90;;;;;;5074048;28;19913;-78
2022/01/08 10:45:47;;;;;;;;;;;9.90;99.90;;;;;;5074080;28;20258;-79
2022/01/08 10:48:12;;;;;;;;;;;9.90;99.90;;;;;;5074213;28;19908;-79
2022/01/08 10:50:38;;;;;;;;;;;9.90;99.90;;;;;;5073742;28;19916;-79
2022/01/08 10:53:04;;;;;;;;;;;9.80;99.90;;;;;;5073947;28;20011;-79
2022/01/08 10:55:33;;;;;;;;;;;9.90;99.90;;;;;;5073780;28;19955;-79
2022/01/08 10:57:58;;;;;;;;;;;9.90;99.90;;;;;;5073969;28;19994;-79
2022/01/08 11:00:30;;;;;;;;;;;9.90;99.90;;;;;;5073973;28;19944;-78
2022/01/08 11:02:56;;;;;;;;;;;10.00;99.90;;;;;;5073783;28;19963;-79
2022/01/08 11:05:22;;;;;;;;;;;10.00;99.90;;;;;;5089243;28;19909;-79
2022/01/08 11:07:48;;;;;;;;;;;10.00;99.90;;;;;;5074036;28;19908;-79
2022/01/08 11:10:20;;;;;;;;;;;10.00;99.90;;;;;;5073809;28;19908;-79
2022/01/08 11:12:47;;;;;;;;;;;10.00;99.90;;;;;;5073757;28;19940;-79
2022/01/08 11:17:45;;;;;;;;;;;10.10;99.90;;;;;;5073763;28;20269;-78
2022/01/08 11:20:10;;;;;;;;;;;10.10;99.90;;;;;;5073666;28;19909;-78
2022/01/08 11:22:38;;;;;;;;;;;10.10;99.90;;;;;;5073266;28;20415;-78
2022/01/08 11:25:08;;;;;;;;;;;10.10;99.90;;;;;;5045229;28;19931;-78
2022/01/08 11:27:40;;;;;;;;;;;10.10;99.90;;;;;;5053268;28;19962;-78
2022/01/08 11:30:19;;;;;;;;;;;10.10;99.90;;;;;;5068745;28;20339;-78
2022/01/08 11:32:45;;;;;;;;;;;10.00;99.90;;;;;;5073522;28;20292;-78
2022/01/08 11:35:12;;;;;;;;;;;10.00;99.90;;;;;;5073705;28;19912;-79
2022/01/08 11:37:38;;;;;;;;;;;10.00;99.90;;;;;;5073399;28;19909;-79
2022/01/08 11:40:05;;;;;;;;;;;10.00;99.90;;;;;;5073008;28;19919;-79
2022/01/08 11:42:35;;;;;;;;;;;10.00;99.90;;;;;;5073196;28;19915;-79
2022/01/08 11:45:03;;;;;;;;;;;10.00;99.90;;;;;;5072315;28;20396;-79
2022/01/08 11:47:29;;;;;;;;;;;10.00;99.90;;;;;;5071315;28;20357;-79
2022/01/08 11:49:56;;;;;;;;;;;10.10;99.90;;;;;;5070870;28;19908;-78
2022/01/08 11:52:23;;;;;;;;;;;10.20;99.90;;;;;;5073339;28;19913;-78
2022/01/08 11:54:49;;;;;;;;;;;10.20;99.90;;;;;;5076735;28;19957;-78
2022/01/08 11:57:17;;;;;;;;;;;10.30;99.90;;;;;;5076553;28;19909;-79
2022/01/08 11:59:43;;;;;;;;;;;10.40;99.90;;;;;;5071250;28;19916;-78
2022/01/08 12:02:09;;;;;;;;;;;10.50;99.90;;;;;;5055926;28;19909;-79
2022/01/08 12:04:35;;;;;;;;;;;10.50;99.90;;;;;;5056024;28;19920;-78
2022/01/08 12:07:19;;;;;;;;;;;10.50;99.90;;;;;;5056026;28;20102;-79
2022/01/08 12:09:46;;;;;;;;;;;10.50;99.90;;;;;;5068252;28;20007;-79
2022/01/08 12:12:12;;;;;;;;;;;10.40;99.90;;;;;;5074736;28;19940;-79
2022/01/08 12:14:37;;;;;;;;;;;10.50;99.90;;;;;;5075949;28;20415;-79
2022/01/08 12:17:13;;;;;;;;;;;10.50;99.90;;;;;;5074867;28;19908;-79
2022/01/08 12:19:46;;;;;;;;;;;10.50;99.90;;;;;;5075738;28;19916;-79
2022/01/08 12:22:18;;;;;;;;;;;10.50;99.90;;;;;;5075893;28;19920;-79
2022/01/08 12:24:49;;;;;;;;;;;10.60;99.90;;;;;;5076116;28;19912;-78
2022/01/08 12:27:33;;;;;;;;;;;10.60;99.90;;;;;;5074676;28;20365;-78
2022/01/08 12:30:25;;;;;;;;;;;10.50;99.90;;;;;;5075429;28;19909;-78
2022/01/08 12:32:53;;;;;;;;;;;10.50;99.90;;;;;;5075644;28;19909;-79
2022/01/08 12:35:32;;;;;;;;;;;10.50;99.90;;;;;;5074675;28;19915;-79
2022/01/08 12:38:00;;;;;;;;;;;10.50;99.90;;;;;;5074301;28;19908;-79
2022/01/08 12:40:42;;;;;;;;;;;10.50;99.90;;;;;;5075424;28;19943;-79
2022/01/08 12:43:23;;;;;;;;;;;10.40;99.90;;;;;;5075775;28;19921;-78
2022/01/08 12:45:50;;;;;;;;;;;10.50;99.90;;;;;;5075512;28;20401;-78
2022/01/08 12:48:16;;;;;;;;;;;10.60;99.90;;;;;;5075765;28;19912;-78
2022/01/08 12:50:42;;;;;;;;;;;10.60;99.90;;;;;;5075160;28;19919;-78
2022/01/08 12:53:08;;;;;;;;;;;10.50;99.90;;;;;;5075668;28;19998;-78
2022/01/08 12:55:39;;;;;;;;;;;10.50;99.90;;;;;;5075623;28;19908;-78
2022/01/08 12:58:34;;;;;;;;;;;10.40;99.90;;;;;;5073945;28;20399;-78
2022/01/08 13:01:07;;;;;;;;;;;10.50;99.90;;;;;;5070267;28;19909;-78
2022/01/08 13:03:34;;;;;;;;;;;10.50;99.90;;;;;;5074001;28;19912;-78
2022/01/08 13:06:15;;;;;;;;;;;10.50;99.90;;;;;;5074869;28;19909;-78
2022/01/08 13:08:43;;;;;;;;;;;10.50;99.90;;;;;;5075128;28;19909;-78
2022/01/08 13:11:10;;;;;;;;;;;10.50;99.90;;;;;;5075246;28;19908;-79
2022/01/08 13:13:39;;;;;;;;;;;10.50;99.90;;;;;;5075111;28;20412;-79
2022/01/08 13:16:12;;;;;;;;;;;10.50;99.90;;;;;;5073589;28;20364;-79
2022/01/08 13:18:38;;;;;;;;;;;10.60;99.90;;;;;;5074923;28;19943;-79
2022/01/08 13:21:04;;;;;;;;;;;10.50;99.90;;;;;;5073798;28;19955;-79
2022/01/08 13:23:30;;;;;;;;;;;10.50;99.90;;;;;;5074985;28;19912;-79
2022/01/08 13:25:57;;;;;;;;;;;10.50;99.90;;;;;;5074961;28;19932;-79
2022/01/08 13:28:24;;;;;;;;;;;10.50;99.90;;;;;;5075007;28;19951;-78
2022/01/08 13:30:50;;;;;;;;;;;10.40;99.90;;;;;;5089939;28;19908;-79
2022/01/08 13:33:25;;;;;;;;;;;10.40;99.90;;;;;;5074797;28;19920;-78
2022/01/08 13:36:00;;;;;;;;;;;10.50;99.90;;;;;;5074761;28;20268;-79
2022/01/08 13:38:33;;;;;;;;;;;10.50;99.90;;;;;;5074864;28;19908;-78
2022/01/08 13:41:08;;;;;;;;;;;10.50;99.90;;;;;;5074359;28;19963;-78
2022/01/08 13:44:12;;;;;;;;;;;10.60;99.90;;;;;;5074697;28;20296;-78
2022/01/08 13:46:38;;;;;;;;;;;10.60;99.90;;;;;;5052323;28;19916;-78
2022/01/08 13:49:07;;;;;;;;;;;10.60;99.90;;;;;;5052065;28;20377;-79
2022/01/08 13:51:35;;;;;;;;;;;10.60;99.90;;;;;;5053338;28;19932;-79
2022/01/08 13:54:06;;;;;;;;;;;10.60;99.90;;;;;;5054515;28;19909;-79
2022/01/08 13:56:32;;;;;;;;;;;10.60;99.90;;;;;;5052784;28;19912;-79
2022/01/08 13:59:15;;;;;;;;;;;10.60;99.90;;;;;;5056525;28;19916;-79
2022/01/08 14:01:44;;;;;;;;;;;10.50;99.90;;;;;;5074158;28;20434;-79
2022/01/08 14:04:10;;;;;;;;;;;10.50;99.90;;;;;;5074079;28;19920;-79
2022/01/08 14:06:36;;;;;;;;;;;10.50;99.90;;;;;;5074126;28;19913;-79
2022/01/08 14:09:02;;;;;;;;;;;10.60;99.90;;;;;;5073895;28;19917;-79
2022/01/08 14:11:29;;;;;;;;;;;10.70;99.90;;;;;;5074113;28;19909;-79
2022/01/08 14:13:56;;;;;;;;;;;10.80;99.90;;;;;;5073939;28;19927;-78
2022/01/08 14:16:32;;;;;;;;;;;10.90;99.90;;;;;;5072936;28;19908;-79
2022/01/08 14:19:17;;;;;;;;;;;11.00;99.90;;;;;;5073668;28;19995;-78
2022/01/08 14:21:56;;;;;;;;;;;11.10;99.90;;;;;;5072451;28;19909;-78
2022/01/08 14:24:24;;;;;;;;;;;11.00;99.90;;;;;;5073950;28;19963;-78
2022/01/08 14:26:59;;;;;;;;;;;11.00;99.90;;;;;;5073839;28;20361;-78
2022/01/08 14:29:25;;;;;;;;;;;10.90;99.90;;;;;;5073416;28;20414;-78
2022/01/08 14:31:55;;;;;;;;;;;10.90;99.90;;;;;;5073558;28;19958;-79
2022/01/08 14:34:21;;;;;;;;;;;10.80;99.90;;;;;;5073384;28;19914;-78
2022/01/08 14:36:57;;;;;;;;;;;10.90;99.90;;;;;;5072338;28;19992;-78
2022/01/08 14:39:32;;;;;;;;;;;10.90;99.90;;;;;;5073100;28;20352;-78
2022/01/08 14:41:59;;;;;;;;;;;10.90;99.90;;;;;;5072202;28;19909;-77
2022/01/08 14:44:25;;;;;;;;;;;10.80;99.90;;;;;;5072129;28;19913;-79
2022/01/08 14:46:51;;;;;;;;;;;10.80;99.90;;;;;;5073194;28;19915;-78
2022/01/08 14:49:16;;;;;;;;;;;10.90;99.90;;;;;;5072945;28;19909;-79
2022/01/08 14:51:42;;;;;;;;;;;10.80;99.90;;;;;;5073299;28;19916;-79
2022/01/08 14:54:08;;;;;;;;;;;10.80;99.90;;;;;;5073307;28;19916;-79
2022/01/08 14:56:35;;;;;;;;;;;10.80;99.90;;;;;;5072115;28;19916;-79